createdAt,value
2019-02-21T00:00:56.080Z,29.83
2019-02-21T00:03:20.668Z,30.37
2019-02-21T00:05:45.081Z,30.07
2019-02-21T00:10:49.069Z,35.37
2019-02-21T00:16:10.806Z,28.13
2019-02-21T00:18:35.243Z,35.53
2019-02-21T00:20:59.660Z,32.57
2019-02-21T00:23:24.108Z,37.63
2019-02-21T00:25:48.525Z,30.43
2019-02-21T00:28:12.932Z,33.50
2019-02-21T00:30:37.436Z,32.30
2019-02-21T00:33:01.855Z,30.13
2019-02-21T00:35:26.372Z,29.67
2019-02-21T00:37:50.781Z,30.93
2019-02-21T00:40:15.212Z,34.30
2019-02-21T00:42:39.607Z,34.43
2019-02-21T00:45:04.291Z,30.30
2019-02-21T00:47:28.765Z,29.37
2019-02-21T00:52:32.188Z,32.90
2019-02-21T00:55:08.948Z,33.23
2019-02-21T00:57:33.354Z,31.97
2019-02-21T01:02:33.592Z,31.70
2019-02-21T01:04:58.085Z,31.77
2019-02-21T01:07:22.515Z,31.83
2019-02-21T01:09:46.924Z,29.07
2019-02-21T01:12:11.357Z,33.70
2019-02-21T01:14:35.770Z,34.17
2019-02-21T01:17:00.196Z,30.63
2019-02-21T01:19:24.618Z,31.57
2019-02-21T01:21:49.043Z,32.53
2019-02-21T01:24:13.458Z,28.60
2019-02-21T01:26:37.999Z,32.13
2019-02-21T01:29:02.481Z,32.87
2019-02-21T01:31:26.914Z,32.80
2019-02-21T01:36:27.824Z,29.43
2019-02-21T01:38:52.260Z,29.23
2019-02-21T01:41:16.687Z,39.00
2019-02-21T01:43:41.092Z,30.60
2019-02-21T01:48:42.080Z,28.80
2019-02-21T01:51:06.541Z,29.30
2019-02-21T01:53:31.011Z,32.57
2019-02-21T02:01:09.047Z,31.20
2019-02-21T02:03:40.012Z,29.40
2019-02-21T02:06:04.570Z,33.67
2019-02-21T02:08:35.030Z,33.23
2019-02-21T02:10:59.428Z,37.17
2019-02-21T02:13:24.991Z,29.70
2019-02-21T02:18:31.544Z,29.17
2019-02-21T02:21:01.959Z,31.17
2019-02-21T02:23:26.404Z,31.93
2019-02-21T02:25:50.807Z,30.77
2019-02-21T02:28:15.241Z,32.73
2019-02-21T02:30:39.662Z,33.70
2019-02-21T02:33:04.086Z,31.70
2019-02-21T02:35:28.518Z,31.17
2019-02-21T02:37:52.914Z,32.93
2019-02-21T02:40:17.343Z,34.03
2019-02-21T02:42:41.823Z,32.00
2019-02-21T02:45:27.049Z,32.67
2019-02-21T02:47:51.459Z,30.23
2019-02-21T02:50:15.897Z,30.40
2019-02-21T02:52:40.312Z,31.60
2019-02-21T02:55:16.138Z,33.10
2019-02-21T02:57:40.542Z,32.07
2019-02-21T03:03:01.479Z,36.30
2019-02-21T03:05:25.914Z,34.97
2019-02-21T03:07:50.328Z,33.73
2019-02-21T03:10:14.913Z,34.00
2019-02-21T03:12:39.383Z,32.60
2019-02-21T03:15:14.777Z,33.07
2019-02-21T03:17:39.265Z,33.10
2019-02-21T03:20:14.845Z,30.37
2019-02-21T03:22:39.248Z,35.83
2019-02-21T03:25:04.236Z,33.00
2019-02-21T03:27:28.643Z,32.67
2019-02-21T03:29:53.050Z,35.07
2019-02-21T03:32:17.515Z,36.37
2019-02-21T03:37:18.113Z,34.97
2019-02-21T03:39:42.525Z,32.67
2019-02-21T03:42:07.053Z,34.77
2019-02-21T03:44:31.450Z,34.80
2019-02-21T03:46:55.913Z,31.37
2019-02-21T03:49:20.316Z,30.63
2019-02-21T03:54:21.217Z,31.60
2019-02-21T03:56:45.679Z,33.10
2019-02-21T03:59:10.229Z,31.43
2019-02-21T04:01:34.727Z,31.40
2019-02-21T04:03:59.203Z,32.07
2019-02-21T04:06:23.702Z,29.80
2019-02-21T04:08:48.188Z,33.27
2019-02-21T04:11:12.593Z,35.30
2019-02-21T04:16:12.878Z,32.07
2019-02-21T04:18:37.299Z,31.13
2019-02-21T04:21:01.742Z,33.73
2019-02-21T04:23:26.130Z,28.47
2019-02-21T04:25:50.531Z,29.67
2019-02-21T04:30:51.282Z,28.43
2019-02-21T04:33:15.718Z,29.90
2019-02-21T04:35:40.131Z,28.20
2019-02-21T04:40:40.648Z,32.60
2019-02-21T04:45:41.637Z,30.87
2019-02-21T04:48:06.069Z,31.50
2019-02-21T04:50:30.475Z,29.93
2019-02-21T04:52:54.879Z,35.63
2019-02-21T04:57:58.218Z,31.83
2019-02-21T05:02:58.186Z,31.80
2019-02-21T05:05:22.630Z,31.63
2019-02-21T05:07:47.048Z,29.13
2019-02-21T05:10:11.632Z,31.53
2019-02-21T05:12:36.062Z,31.03
2019-02-21T05:20:12.488Z,32.00
2019-02-21T05:22:36.976Z,32.00
2019-02-21T05:25:01.428Z,34.10
2019-02-21T05:30:00.935Z,31.47
2019-02-21T05:32:44.468Z,32.03
2019-02-21T05:38:03.868Z,34.17
2019-02-21T05:40:47.419Z,33.83
2019-02-21T05:43:31.546Z,34.43
2019-02-21T05:46:15.295Z,33.77
2019-02-21T05:48:58.846Z,33.10
2019-02-21T05:54:18.049Z,35.67
2019-02-21T05:57:01.611Z,34.90
2019-02-21T05:59:45.144Z,34.83
2019-02-21T06:02:28.701Z,34.27
2019-02-21T06:05:12.240Z,34.03
2019-02-21T06:08:08.476Z,33.30
2019-02-21T06:13:27.897Z,35.10
2019-02-21T06:16:11.441Z,31.70
2019-02-21T06:18:55.005Z,34.10
2019-02-21T06:21:38.580Z,31.40
2019-02-21T06:24:22.137Z,32.97
2019-02-21T06:31:57.288Z,32.70
2019-02-21T06:34:21.701Z,33.43
2019-02-21T06:36:46.129Z,29.50
2019-02-21T06:39:10.579Z,29.40
2019-02-21T06:41:34.984Z,31.17
2019-02-21T06:43:59.419Z,29.53
2019-02-21T06:49:00.274Z,31.20
2019-02-21T06:51:24.682Z,30.77
2019-02-21T06:53:49.115Z,31.10
2019-02-21T06:58:49.278Z,27.27
2019-02-21T07:01:13.702Z,31.40
2019-02-21T07:03:38.175Z,29.43
2019-02-21T07:06:02.600Z,26.63
2019-02-21T07:08:27.017Z,26.10
2019-02-21T07:10:51.460Z,27.17
2019-02-21T07:13:26.054Z,27.13
2019-02-21T07:18:23.848Z,26.27
2019-02-21T07:20:53.561Z,22.60
2019-02-21T07:23:17.982Z,24.20
2019-02-21T07:26:01.532Z,26.87
2019-02-21T07:31:02.107Z,25.13
2019-02-21T07:38:38.539Z,23.93
2019-02-21T07:41:03.089Z,23.33
2019-02-21T07:43:40.020Z,22.07
2019-02-21T07:46:06.878Z,21.60
2019-02-21T07:48:36.602Z,22.60
2019-02-21T07:53:43.304Z,24.33
2019-02-21T07:56:07.883Z,21.83
2019-02-21T07:58:32.361Z,24.73
2019-02-21T08:00:56.903Z,24.13
2019-02-21T08:03:29.772Z,21.77
2019-02-21T08:06:05.548Z,23.20
2019-02-21T08:08:32.352Z,24.03
2019-02-21T08:11:16.799Z,21.57
2019-02-21T08:13:41.268Z,20.77
2019-02-21T08:16:18.194Z,23.37
2019-02-21T08:18:42.611Z,20.77
2019-02-21T08:21:07.071Z,19.20
2019-02-21T08:23:32.495Z,24.77
2019-02-21T08:26:06.582Z,21.40
2019-02-21T08:28:30.982Z,22.80
2019-02-21T08:38:43.739Z,19.37
2019-02-21T08:41:08.155Z,19.77
2019-02-21T08:43:32.617Z,20.70
2019-02-21T08:45:57.685Z,17.80
2019-02-21T08:48:28.897Z,20.00
2019-02-21T08:50:53.319Z,19.60
2019-02-21T08:53:17.761Z,20.60
2019-02-21T08:55:42.202Z,20.43
2019-02-21T08:58:07.894Z,20.03
2019-02-21T09:00:38.449Z,18.77
2019-02-21T09:03:02.962Z,23.47
2019-02-21T09:05:27.528Z,19.93
2019-02-21T09:07:52.037Z,20.13
2019-02-21T09:10:16.527Z,17.40
2019-02-21T09:18:14.170Z,18.67
2019-02-21T09:20:47.777Z,17.17
2019-02-21T09:23:17.402Z,17.93
2019-02-21T09:25:41.793Z,17.70
2019-02-21T09:28:06.223Z,20.40
2019-02-21T09:30:30.784Z,17.13
2019-02-21T09:32:55.203Z,18.73
2019-02-21T09:35:19.643Z,17.53
2019-02-21T09:37:44.053Z,17.10
2019-02-21T09:43:05.766Z,17.73
2019-02-21T09:45:32.678Z,16.33
2019-02-21T09:48:14.948Z,15.63
2019-02-21T09:50:39.395Z,18.17
2019-02-21T09:55:39.897Z,13.93
2019-02-21T10:00:40.190Z,19.17
2019-02-21T10:03:04.682Z,15.40
2019-02-21T10:05:29.202Z,15.33
2019-02-21T10:07:53.608Z,15.00
2019-02-21T10:10:37.147Z,14.37
2019-02-21T10:13:20.644Z,14.03
2019-02-21T10:19:02.036Z,16.17
2019-02-21T10:21:45.555Z,15.90
2019-02-21T10:24:09.163Z,15.30
2019-02-21T10:26:47.978Z,12.80
2019-02-21T10:29:12.406Z,14.57
2019-02-21T10:31:36.859Z,14.60
2019-02-21T10:34:01.284Z,14.77
2019-02-21T10:36:25.803Z,13.67
2019-02-21T10:38:50.300Z,14.47
2019-02-21T10:43:50.766Z,14.97
2019-02-21T10:46:15.276Z,13.57
2019-02-21T10:48:39.696Z,12.63
2019-02-21T10:51:04.115Z,13.23
2019-02-21T10:53:28.577Z,13.10
2019-02-21T10:55:52.986Z,15.33
2019-02-21T10:58:17.443Z,14.03
2019-02-21T11:00:41.929Z,15.73
2019-02-21T11:03:06.457Z,14.10
2019-02-21T11:05:30.991Z,15.40
2019-02-21T11:07:55.447Z,15.73
2019-02-21T11:13:17.054Z,12.93
2019-02-21T11:18:21.076Z,14.20
2019-02-21T11:20:45.558Z,12.00
2019-02-21T11:23:09.987Z,11.87
2019-02-21T11:28:11.151Z,11.07
2019-02-21T11:30:35.635Z,13.33
2019-02-21T11:33:00.122Z,14.73
2019-02-21T11:35:24.602Z,13.10
2019-02-21T11:37:49.042Z,14.40
2019-02-21T11:43:10.803Z,12.57
2019-02-21T11:48:11.317Z,10.03
2019-02-21T11:50:35.824Z,8.50
2019-02-21T11:53:00.232Z,11.80
2019-02-21T12:00:57.704Z,8.97
2019-02-21T12:03:22.121Z,8.93
2019-02-21T12:05:46.554Z,12.07
2019-02-21T12:08:10.948Z,10.07
2019-02-21T12:10:35.391Z,11.13
2019-02-21T12:15:38.622Z,10.87
2019-02-21T12:20:38.826Z,9.73
2019-02-21T12:23:03.255Z,12.37
2019-02-21T12:25:27.740Z,11.63
2019-02-21T12:27:52.305Z,13.10
2019-02-21T12:30:37.541Z,12.13
2019-02-21T12:35:40.764Z,10.23
2019-02-21T12:38:05.329Z,12.97
2019-02-21T12:40:29.775Z,10.13
2019-02-21T12:42:54.189Z,11.90
2019-02-21T12:50:51.567Z,12.20
2019-02-21T12:53:16.360Z,10.80
2019-02-21T12:55:41.126Z,11.00
2019-02-21T12:58:05.688Z,11.60
2019-02-21T13:00:30.353Z,14.50
2019-02-21T13:02:54.892Z,13.10
2019-02-21T13:05:19.458Z,11.90
2019-02-21T13:13:19.388Z,11.77
2019-02-21T13:15:44.193Z,11.07
2019-02-21T13:18:15.858Z,13.07
2019-02-21T13:20:40.215Z,12.63
2019-02-21T13:23:04.794Z,12.90
2019-02-21T13:25:29.211Z,13.60
2019-02-21T13:33:05.956Z,12.40
2019-02-21T13:35:30.370Z,12.43
2019-02-21T13:40:30.515Z,11.23
2019-02-21T13:42:55.109Z,13.77
2019-02-21T13:45:19.544Z,14.77
2019-02-21T13:47:44.200Z,14.50
2019-02-21T13:50:29.733Z,14.50
2019-02-21T13:52:54.254Z,14.33
2019-02-21T13:57:55.026Z,12.70
2019-02-21T14:06:02.967Z,13.60
2019-02-21T14:08:23.448Z,13.70
2019-02-21T14:10:47.866Z,15.27
2019-02-21T14:13:12.685Z,12.03
2019-02-21T14:18:13.508Z,14.57
2019-02-21T14:20:45.378Z,13.00
2019-02-21T14:23:10.428Z,13.80
2019-02-21T14:25:40.833Z,12.93
2019-02-21T14:28:06.486Z,15.00
2019-02-21T14:30:31.241Z,14.37
2019-02-21T14:32:55.667Z,14.63
2019-02-21T14:35:31.150Z,17.43
2019-02-21T14:37:55.584Z,17.37
2019-02-21T14:42:59.458Z,13.53
2019-02-21T14:45:44.717Z,14.30
2019-02-21T14:48:09.220Z,17.47
2019-02-21T14:50:35.922Z,15.10
2019-02-21T14:53:19.196Z,16.80
2019-02-21T14:55:43.693Z,16.13
2019-02-21T14:58:08.115Z,14.83
2019-02-21T15:00:32.687Z,14.53
2019-02-21T15:02:57.960Z,15.57
2019-02-21T15:05:40.783Z,16.67
2019-02-21T15:08:05.528Z,16.63
2019-02-21T15:10:29.992Z,18.07
2019-02-21T15:12:54.549Z,18.33
2019-02-21T15:18:15.508Z,18.97
2019-02-21T15:20:40.013Z,19.37
2019-02-21T15:23:04.531Z,17.63
2019-02-21T15:25:28.958Z,18.10
2019-02-21T15:27:53.425Z,18.87
2019-02-21T15:30:37.224Z,17.67
2019-02-21T15:33:01.727Z,18.30
2019-02-21T15:35:26.154Z,19.47
2019-02-21T15:37:50.681Z,20.43
2019-02-21T15:40:15.176Z,23.77
2019-02-21T15:42:39.706Z,19.53
2019-02-21T15:48:01.363Z,20.53
2019-02-21T15:50:25.858Z,22.63
2019-02-21T15:55:32.122Z,21.00
2019-02-21T15:58:04.322Z,22.30
2019-02-21T16:00:33.831Z,21.83
2019-02-21T16:02:58.279Z,25.27
2019-02-21T16:05:22.836Z,20.53
2019-02-21T16:07:47.358Z,19.20
2019-02-21T16:10:31.143Z,21.53
2019-02-21T16:12:56.431Z,20.63
2019-02-21T16:15:30.795Z,19.63
2019-02-21T16:18:14.615Z,19.47
2019-02-21T16:20:39.047Z,20.53
2019-02-21T16:23:03.565Z,23.73
2019-02-21T16:31:01.051Z,23.27
2019-02-21T16:33:25.472Z,25.30
2019-02-21T16:35:49.900Z,21.63
2019-02-21T16:38:14.326Z,23.77
2019-02-21T16:40:39.048Z,21.77
2019-02-21T16:43:03.468Z,22.43
2019-02-21T16:45:34.231Z,22.63
2019-02-21T16:47:59.687Z,22.00
2019-02-21T16:50:29.804Z,23.67
2019-02-21T16:52:55.993Z,23.10
2019-02-21T16:55:41.236Z,22.97
2019-02-21T16:58:05.655Z,21.90
2019-02-21T17:00:42.037Z,24.23
2019-02-21T17:06:03.501Z,25.03
2019-02-21T17:08:33.197Z,23.40
2019-02-21T17:10:57.673Z,22.17
2019-02-21T17:13:22.243Z,27.00
2019-02-21T17:15:46.695Z,25.47
2019-02-21T17:18:11.124Z,22.63
2019-02-21T17:20:35.649Z,24.63
2019-02-21T17:23:00.239Z,21.60
2019-02-21T17:30:36.867Z,22.87
2019-02-21T17:33:01.368Z,25.60
2019-02-21T17:35:25.893Z,24.03
2019-02-21T17:40:27.104Z,23.53
2019-02-21T17:42:51.601Z,24.73
2019-02-21T17:45:16.006Z,26.73
2019-02-21T17:47:40.976Z,28.87
2019-02-21T17:53:02.111Z,26.90
2019-02-21T17:58:02.344Z,30.43
2019-02-21T18:00:46.000Z,28.73
2019-02-21T18:03:10.513Z,27.03
2019-02-21T18:05:35.031Z,30.60
2019-02-21T18:07:59.480Z,26.07
2019-02-21T18:10:24.073Z,27.90
2019-02-21T18:12:48.605Z,29.40
2019-02-21T18:18:09.692Z,25.70
2019-02-21T18:20:34.120Z,25.80
2019-02-21T18:22:58.735Z,27.17
2019-02-21T18:28:22.533Z,27.53
2019-02-21T18:30:47.204Z,27.83
2019-02-21T18:33:11.644Z,29.17
2019-02-21T18:35:36.221Z,26.97
2019-02-21T18:38:00.762Z,28.60
2019-02-21T18:43:21.775Z,27.13
2019-02-21T18:45:46.211Z,26.40
2019-02-21T18:48:10.664Z,26.80
2019-02-21T18:50:38.165Z,25.93
2019-02-21T18:53:06.715Z,25.10
2019-02-21T18:55:31.162Z,23.83
2019-02-21T18:57:55.680Z,25.80
2019-02-21T19:03:16.934Z,25.07
2019-02-21T19:08:20.604Z,25.60
2019-02-21T19:10:45.119Z,26.00
2019-02-21T19:13:09.669Z,22.13
2019-02-21T19:18:09.838Z,23.43
2019-02-21T19:20:34.480Z,23.47
2019-02-21T19:22:59.103Z,23.80
2019-02-21T19:25:23.519Z,22.73
2019-02-21T19:27:48.133Z,23.27
2019-02-21T19:33:09.269Z,22.93
2019-02-21T19:38:11.023Z,21.40
2019-02-21T19:45:57.085Z,21.90
2019-02-21T19:50:58.024Z,23.83
2019-02-21T19:53:22.548Z,19.20
2019-02-21T19:55:47.063Z,22.83
2019-02-21T19:58:11.575Z,22.87
2019-02-21T20:03:11.350Z,23.73
2019-02-21T20:05:35.873Z,24.40
2019-02-21T20:08:08.228Z,23.47
2019-02-21T20:10:31.607Z,21.97
2019-02-21T20:15:32.141Z,24.63
2019-02-21T20:17:56.633Z,25.50
2019-02-21T20:23:18.139Z,26.23
2019-02-21T20:25:54.678Z,26.17
2019-02-21T20:28:19.256Z,25.33
2019-02-21T20:30:43.733Z,25.90
2019-02-21T20:33:08.139Z,26.97
2019-02-21T20:35:32.673Z,25.87
2019-02-21T20:37:57.174Z,27.03
2019-02-21T20:40:21.638Z,29.03
2019-02-21T20:42:46.063Z,27.83
2019-02-21T20:45:29.949Z,31.30
2019-02-21T20:47:54.427Z,29.43
2019-02-21T20:52:54.910Z,29.63
2019-02-21T20:55:19.410Z,31.77
2019-02-21T21:00:34.424Z,30.90
2019-02-21T21:05:38.476Z,29.57
2019-02-21T21:08:02.976Z,31.40
2019-02-21T21:13:03.584Z,35.53
2019-02-21T21:15:28.107Z,32.70
2019-02-21T21:17:52.532Z,37.70
2019-02-21T21:20:17.677Z,31.03
2019-02-21T21:23:01.275Z,34.03
2019-02-21T21:30:38.370Z,37.70
2019-02-21T21:33:02.792Z,38.20
2019-02-21T21:35:27.259Z,39.20
2019-02-21T21:37:51.673Z,36.17
2019-02-21T21:43:13.184Z,36.30
2019-02-21T21:45:37.776Z,35.67
2019-02-21T21:48:02.210Z,35.50
2019-02-21T21:50:26.707Z,36.73
2019-02-21T21:52:51.238Z,30.40
2019-02-21T21:55:15.902Z,31.00
2019-02-21T21:57:40.407Z,30.60
2019-02-21T22:03:02.266Z,29.97
2019-02-21T22:05:26.762Z,30.33
2019-02-21T22:07:51.212Z,33.53
2019-02-21T22:13:12.218Z,27.37
2019-02-21T22:15:36.699Z,28.43
2019-02-21T22:18:01.157Z,27.30
2019-02-21T22:20:25.569Z,27.53
2019-02-21T22:22:50.026Z,26.60
2019-02-21T22:25:37.262Z,25.60
2019-02-21T22:28:10.522Z,25.20
2019-02-21T22:30:34.954Z,26.63
2019-02-21T22:35:35.767Z,24.93
2019-02-21T22:38:00.213Z,21.57
2019-02-21T22:40:24.639Z,23.40
2019-02-21T22:42:49.057Z,25.27
2019-02-21T22:45:13.669Z,22.93
2019-02-21T22:47:38.097Z,22.13
2019-02-21T22:52:38.717Z,20.70
2019-02-21T22:57:39.604Z,19.70
2019-02-21T23:06:35.122Z,18.83
2019-02-21T23:11:36.026Z,19.47
2019-02-21T23:14:00.524Z,21.10
2019-02-21T23:16:25.236Z,17.17
2019-02-21T23:24:22.919Z,17.83
2019-02-21T23:26:47.436Z,19.00
2019-02-21T23:29:12.021Z,17.60
2019-02-21T23:34:31.602Z,19.23
2019-02-21T23:36:56.026Z,17.00
2019-02-21T23:41:56.518Z,16.40
2019-02-21T23:52:09.635Z,15.77
2019-02-21T23:54:34.114Z,15.83
2019-02-21T23:56:58.564Z,15.33
2019-02-21T23:59:22.983Z,14.63
